createdAt,value
2022-12-12T00:00:25.387Z,20.49
2022-12-12T00:03:28.482Z,20.48
2022-12-12T00:06:31.757Z,20.47
2022-12-12T00:09:36.736Z,20.45
2022-12-12T00:12:39.751Z,20.44
2022-12-12T00:15:42.846Z,20.42
2022-12-12T00:18:46.220Z,20.41
2022-12-12T00:21:49.856Z,20.40
2022-12-12T00:24:54.274Z,20.40
2022-12-12T00:27:57.361Z,20.40
2022-12-12T00:31:00.507Z,20.39
2022-12-12T00:34:03.819Z,20.37
2022-12-12T00:37:06.746Z,20.38
2022-12-12T00:40:13.593Z,20.35
2022-12-12T00:43:16.839Z,20.35
2022-12-12T00:46:22.302Z,20.33
2022-12-12T00:49:25.368Z,20.33
2022-12-12T00:52:28.343Z,20.32
2022-12-12T00:55:32.755Z,20.30
2022-12-12T00:58:36.181Z,20.31
2022-12-12T01:01:39.297Z,20.32
2022-12-12T01:04:42.303Z,20.33
2022-12-12T01:07:45.317Z,20.34
2022-12-12T01:10:49.678Z,20.34
2022-12-12T01:13:54.450Z,20.34
2022-12-12T01:16:57.494Z,20.33
2022-12-12T01:20:00.420Z,20.34
2022-12-12T01:23:03.434Z,20.34
2022-12-12T01:26:10.049Z,20.35
2022-12-12T01:29:13.015Z,20.36
2022-12-12T01:32:15.967Z,20.35
2022-12-12T01:35:19.266Z,20.36
2022-12-12T01:38:22.588Z,20.35
2022-12-12T01:41:27.014Z,20.35
2022-12-12T01:44:43.406Z,20.36
2022-12-12T01:47:47.778Z,20.36
2022-12-12T01:50:51.929Z,20.36
2022-12-12T01:54:01.149Z,20.36
2022-12-12T01:57:09.649Z,20.35
2022-12-12T02:00:13.229Z,20.35
2022-12-12T02:03:20.221Z,20.34
2022-12-12T02:06:27.707Z,20.34
2022-12-12T02:09:31.058Z,20.33
2022-12-12T02:12:35.682Z,20.33
2022-12-12T02:15:43.738Z,20.33
2022-12-12T02:18:55.990Z,20.33
2022-12-12T02:22:04.230Z,20.33
2022-12-12T02:25:29.398Z,20.33
2022-12-12T02:28:59.739Z,20.32
2022-12-12T02:32:09.762Z,20.32
2022-12-12T02:35:20.201Z,20.31
2022-12-12T02:38:29.229Z,20.31
2022-12-12T02:41:39.090Z,20.31
2022-12-12T02:44:50.075Z,20.30
2022-12-12T02:48:00.030Z,20.30
2022-12-12T02:51:07.758Z,20.29
2022-12-12T02:54:16.064Z,20.29
2022-12-12T02:57:20.522Z,20.29
2022-12-12T03:00:23.636Z,20.30
2022-12-12T03:03:57.333Z,20.31
2022-12-12T03:07:26.578Z,20.30
2022-12-12T03:10:46.186Z,20.30
2022-12-12T03:13:57.490Z,20.29
2022-12-12T03:17:06.682Z,20.28
2022-12-12T03:20:17.393Z,20.29
2022-12-12T03:23:25.898Z,20.28
2022-12-12T03:26:33.207Z,20.27
2022-12-12T03:29:41.811Z,20.27
2022-12-12T03:32:52.049Z,20.27
2022-12-12T03:36:01.003Z,20.29
2022-12-12T03:39:10.063Z,20.28
2022-12-12T03:42:20.080Z,20.30
2022-12-12T03:45:28.649Z,20.29
2022-12-12T03:48:34.041Z,20.28
2022-12-12T03:51:44.911Z,20.29
2022-12-12T03:54:52.988Z,20.29
2022-12-12T03:58:00.545Z,20.30
2022-12-12T04:01:07.853Z,20.31
2022-12-12T04:04:16.392Z,20.32
2022-12-12T04:07:26.330Z,20.33
2022-12-12T04:10:51.021Z,20.34
2022-12-12T04:14:05.575Z,20.36
2022-12-12T04:17:12.451Z,20.38
2022-12-12T04:20:43.046Z,20.38
2022-12-12T04:24:00.573Z,20.38
2022-12-12T04:27:09.798Z,20.38
2022-12-12T04:30:15.223Z,20.38
2022-12-12T04:33:22.115Z,20.38
2022-12-12T04:36:26.673Z,20.36
2022-12-12T04:39:32.774Z,20.34
2022-12-12T04:42:39.888Z,20.34
2022-12-12T04:45:47.215Z,20.32
2022-12-12T04:48:54.990Z,20.31
2022-12-12T04:52:03.954Z,20.31
2022-12-12T04:55:14.032Z,20.31
2022-12-12T04:58:17.666Z,20.30
2022-12-12T05:01:27.651Z,20.30
2022-12-12T05:04:35.130Z,20.29
2022-12-12T05:07:41.026Z,20.27
2022-12-12T05:10:47.516Z,20.24
2022-12-12T05:13:51.425Z,20.25
2022-12-12T05:17:00.019Z,20.24
2022-12-12T05:20:03.092Z,20.23
2022-12-12T05:23:06.722Z,20.22
2022-12-12T05:26:12.098Z,20.21
2022-12-12T05:29:15.208Z,20.21
2022-12-12T05:32:18.212Z,20.21
2022-12-12T05:35:21.406Z,20.21
2022-12-12T05:38:24.405Z,20.23
2022-12-12T05:41:28.749Z,20.26
2022-12-12T05:44:32.066Z,20.29
2022-12-12T05:47:35.316Z,20.32
2022-12-12T05:50:38.277Z,20.35
2022-12-12T05:53:43.124Z,20.40
2022-12-12T05:56:47.802Z,20.42
2022-12-12T05:59:50.850Z,20.43
2022-12-12T06:02:54.506Z,20.44
2022-12-12T06:05:57.518Z,20.43
2022-12-12T06:09:00.794Z,20.44
2022-12-12T06:12:05.734Z,20.42
2022-12-12T06:15:09.969Z,20.42
2022-12-12T06:18:13.313Z,20.40
2022-12-12T06:21:16.290Z,20.40
2022-12-12T06:24:19.321Z,20.38
2022-12-12T06:27:23.767Z,20.36
2022-12-12T06:30:26.825Z,20.35
2022-12-12T06:33:31.854Z,20.35
2022-12-12T06:36:35.185Z,20.33
2022-12-12T06:39:38.910Z,20.31
2022-12-12T06:42:48.161Z,20.30
2022-12-12T06:45:52.075Z,20.29
2022-12-12T06:48:57.178Z,20.29
2022-12-12T06:52:00.073Z,20.29
2022-12-12T06:55:03.014Z,20.27
2022-12-12T06:58:07.426Z,20.26
2022-12-12T07:01:12.767Z,20.25
2022-12-12T07:04:15.843Z,20.25
2022-12-12T07:07:18.811Z,20.24
2022-12-12T07:10:21.918Z,20.24
2022-12-12T07:13:26.285Z,20.23
2022-12-12T07:16:29.273Z,20.22
2022-12-12T07:19:32.216Z,20.24
2022-12-12T07:22:35.245Z,20.25
2022-12-12T07:25:38.958Z,20.29
2022-12-12T07:28:43.426Z,20.32
2022-12-12T07:31:46.479Z,20.36
2022-12-12T07:34:49.385Z,20.40
2022-12-12T07:37:52.546Z,20.42
2022-12-12T07:40:55.798Z,20.46
2022-12-12T07:44:00.448Z,20.48
2022-12-12T07:47:03.523Z,20.49
2022-12-12T07:50:07.571Z,20.50
2022-12-12T07:53:10.607Z,20.51
2022-12-12T07:56:15.475Z,20.51
2022-12-12T07:59:20.263Z,20.50
2022-12-12T08:02:23.338Z,20.49
2022-12-12T08:05:26.426Z,20.48
2022-12-12T08:08:29.463Z,20.48
2022-12-12T08:11:32.584Z,20.47
2022-12-12T08:14:38.356Z,20.46
2022-12-12T08:17:41.730Z,20.45
2022-12-12T08:20:44.787Z,20.43
2022-12-12T08:23:47.798Z,20.43
2022-12-12T08:26:52.091Z,20.42
2022-12-12T08:29:56.763Z,20.42
2022-12-12T08:33:02.380Z,20.41
2022-12-12T08:36:14.364Z,20.39
2022-12-12T08:39:17.782Z,20.39
2022-12-12T08:42:21.138Z,20.39
2022-12-12T08:45:25.586Z,20.40
2022-12-12T08:48:28.762Z,20.40
2022-12-12T08:51:31.832Z,20.38
2022-12-12T08:54:34.825Z,20.37
2022-12-12T08:57:39.161Z,20.34
2022-12-12T09:00:43.530Z,20.32
2022-12-12T09:03:48.960Z,20.31
2022-12-12T09:06:51.973Z,20.36
2022-12-12T09:09:55.409Z,20.43
2022-12-12T09:12:58.470Z,20.51
2022-12-12T09:16:03.237Z,20.63
2022-12-12T09:19:06.463Z,20.70
2022-12-12T09:22:09.538Z,20.77
2022-12-12T09:25:12.794Z,20.85
2022-12-12T09:28:18.873Z,20.88
2022-12-12T09:31:23.462Z,20.91
2022-12-12T09:34:26.499Z,20.93
2022-12-12T09:37:31.095Z,20.94
2022-12-12T09:40:39.066Z,20.93
2022-12-12T09:43:49.390Z,20.94
2022-12-12T09:46:57.753Z,20.92
2022-12-12T09:50:05.291Z,20.90
2022-12-12T09:53:13.172Z,20.88
2022-12-12T09:56:22.683Z,20.85
2022-12-12T09:59:34.257Z,20.83
2022-12-12T10:03:06.293Z,20.79
2022-12-12T10:09:48.198Z,20.74
2022-12-12T10:12:52.303Z,20.71
2022-12-12T10:15:59.375Z,20.69
2022-12-12T10:19:11.376Z,20.67
2022-12-12T10:22:24.356Z,20.66
2022-12-12T10:25:40.417Z,20.63
2022-12-12T10:28:43.459Z,20.62
2022-12-12T10:31:56.965Z,20.60
2022-12-12T10:35:18.853Z,20.58
2022-12-12T10:38:46.084Z,20.58
2022-12-12T10:41:53.975Z,20.58
2022-12-12T10:45:29.556Z,20.57
2022-12-12T10:48:32.628Z,20.56
2022-12-12T10:51:37.082Z,20.56
2022-12-12T10:54:45.938Z,20.55
2022-12-12T10:57:48.954Z,20.54
2022-12-12T11:00:52.115Z,20.52
2022-12-12T11:03:57.198Z,20.52
2022-12-12T11:07:01.890Z,20.51
2022-12-12T11:10:21.431Z,20.50
2022-12-12T11:13:24.393Z,20.49
2022-12-12T11:16:29.369Z,20.49
2022-12-12T11:19:39.480Z,20.49
2022-12-12T11:22:43.980Z,20.46
2022-12-12T11:25:47.884Z,20.46
2022-12-12T11:28:56.481Z,20.46
2022-12-12T11:32:00.771Z,20.45
2022-12-12T11:35:07.679Z,20.45
2022-12-12T11:38:21.142Z,20.46
2022-12-12T11:41:25.346Z,20.48
2022-12-12T11:44:33.459Z,20.49
2022-12-12T11:47:41.873Z,20.51
2022-12-12T11:50:46.489Z,20.54
2022-12-12T11:53:50.837Z,20.56
2022-12-12T11:56:58.763Z,20.58
2022-12-12T12:00:14.411Z,20.59
2022-12-12T12:03:28.143Z,20.59
2022-12-12T12:06:41.293Z,20.59
2022-12-12T12:09:55.559Z,20.58
2022-12-12T12:13:13.134Z,20.57
2022-12-12T12:16:28.084Z,20.56
2022-12-12T12:19:38.234Z,20.55
2022-12-12T12:22:55.155Z,20.54
2022-12-12T12:26:06.269Z,20.53
2022-12-12T12:29:22.890Z,20.52
2022-12-12T12:32:35.473Z,20.52
2022-12-12T12:35:48.459Z,20.49
2022-12-12T12:38:58.129Z,20.49
2022-12-12T12:42:19.676Z,20.48
2022-12-12T12:45:29.401Z,20.47
2022-12-12T12:48:38.487Z,20.45
2022-12-12T12:51:50.207Z,20.44
2022-12-12T12:54:58.118Z,20.43
2022-12-12T12:58:07.003Z,20.42
2022-12-12T13:01:17.628Z,20.41
2022-12-12T13:04:25.461Z,20.40
2022-12-12T13:07:40.775Z,20.41
2022-12-12T13:10:48.574Z,20.39
2022-12-12T13:13:56.086Z,20.39
2022-12-12T13:17:06.436Z,20.39
2022-12-12T13:20:17.152Z,20.38
2022-12-12T13:23:37.310Z,20.38
2022-12-12T13:26:45.967Z,20.38
2022-12-12T13:29:54.843Z,20.40
2022-12-12T13:33:13.681Z,20.42
2022-12-12T13:36:27.573Z,20.44
2022-12-12T13:39:34.071Z,20.46
2022-12-12T13:42:55.364Z,20.48
2022-12-12T13:45:59.986Z,20.50
2022-12-12T13:49:25.653Z,20.52
2022-12-12T13:52:31.471Z,20.54
2022-12-12T13:55:34.607Z,20.53
2022-12-12T13:58:37.549Z,20.54
2022-12-12T14:01:42.038Z,20.53
2022-12-12T14:04:45.434Z,20.53
2022-12-12T14:07:50.558Z,20.52
2022-12-12T14:11:00.722Z,20.52
2022-12-12T14:14:21.603Z,20.51
2022-12-12T14:17:29.120Z,20.50
2022-12-12T14:20:34.861Z,20.48
2022-12-12T14:23:42.121Z,20.47
2022-12-12T14:26:50.039Z,20.47
2022-12-12T14:29:53.033Z,20.45
2022-12-12T14:33:07.610Z,20.46
2022-12-12T14:36:30.346Z,20.44
2022-12-12T14:39:57.545Z,20.43
2022-12-12T14:43:20.213Z,20.41
2022-12-12T14:46:25.396Z,20.40
2022-12-12T14:49:29.747Z,20.40
2022-12-12T14:52:32.706Z,20.38
2022-12-12T14:55:35.726Z,20.37
2022-12-12T14:58:42.218Z,20.37
2022-12-12T15:01:47.775Z,20.37
2022-12-12T15:05:00.956Z,20.37
2022-12-12T15:08:19.773Z,20.36
2022-12-12T15:11:26.111Z,20.36
2022-12-12T15:14:29.211Z,20.37
2022-12-12T15:17:34.242Z,20.35
2022-12-12T15:20:39.018Z,20.36
2022-12-12T15:23:42.924Z,20.39
2022-12-12T15:26:46.647Z,20.40
2022-12-12T15:29:49.943Z,20.42
2022-12-12T15:32:52.950Z,20.44
2022-12-12T15:36:02.740Z,20.47
2022-12-12T15:39:15.620Z,20.50
2022-12-12T15:42:19.323Z,20.52
2022-12-12T15:45:33.462Z,20.53
2022-12-12T15:48:36.446Z,20.53
2022-12-12T15:51:40.780Z,20.53
2022-12-12T15:54:48.766Z,20.52
2022-12-12T15:57:53.641Z,20.52
2022-12-12T16:01:05.647Z,20.51
2022-12-12T16:04:25.242Z,20.49
2022-12-12T16:07:36.392Z,20.48
2022-12-12T16:10:53.022Z,20.46
2022-12-12T16:13:56.000Z,20.45
2022-12-12T16:17:02.813Z,20.44
2022-12-12T16:20:08.207Z,20.43
2022-12-12T16:23:23.460Z,20.43
2022-12-12T16:26:26.858Z,20.42
2022-12-12T16:29:29.848Z,20.40
2022-12-12T16:32:34.742Z,20.39
2022-12-12T16:35:37.671Z,20.39
2022-12-12T16:38:43.287Z,20.38
2022-12-12T16:41:46.488Z,20.36
2022-12-12T16:44:49.669Z,20.36
2022-12-12T16:47:52.571Z,20.34
2022-12-12T16:50:59.435Z,20.35
2022-12-12T16:54:03.774Z,20.32
2022-12-12T16:57:06.802Z,20.32
2022-12-12T17:00:12.032Z,20.33
2022-12-12T17:03:17.103Z,20.32
2022-12-12T17:06:20.059Z,20.33
2022-12-12T17:09:29.865Z,20.33
2022-12-12T17:12:33.145Z,20.33
2022-12-12T17:15:36.280Z,20.33
2022-12-12T17:18:39.218Z,20.36
2022-12-12T17:21:42.203Z,20.37
2022-12-12T17:24:46.528Z,20.40
2022-12-12T17:27:49.546Z,20.42
2022-12-12T17:30:52.519Z,20.43
2022-12-12T17:33:55.671Z,20.44
2022-12-12T17:36:58.694Z,20.46
2022-12-12T17:40:03.487Z,20.46
2022-12-12T17:43:06.537Z,20.46
2022-12-12T17:46:14.637Z,20.46
2022-12-12T17:49:17.930Z,20.45
2022-12-12T17:52:21.060Z,20.45
2022-12-12T17:55:53.397Z,20.44
2022-12-12T17:58:49.453Z,20.43
2022-12-12T18:01:53.747Z,20.42
2022-12-12T18:04:56.779Z,20.41
2022-12-12T18:07:59.853Z,20.41
2022-12-12T18:11:07.537Z,20.40
2022-12-12T18:14:15.344Z,20.40
2022-12-12T18:17:18.385Z,20.39
2022-12-12T18:20:22.782Z,20.39
2022-12-12T18:23:27.375Z,20.38
2022-12-12T18:26:31.694Z,20.37
2022-12-12T18:29:34.741Z,20.36
2022-12-12T18:32:37.721Z,20.35
2022-12-12T18:35:40.725Z,20.34
2022-12-12T18:38:47.582Z,20.33
2022-12-12T18:41:53.033Z,20.33
2022-12-12T18:44:56.230Z,20.32
2022-12-12T18:47:59.727Z,20.32
2022-12-12T18:51:06.347Z,20.32
2022-12-12T18:54:14.281Z,20.31
2022-12-12T18:57:19.869Z,20.33
2022-12-12T19:00:22.899Z,20.35
2022-12-12T19:03:25.825Z,20.36
2022-12-12T19:06:33.778Z,20.38
2022-12-12T19:09:36.938Z,20.39
2022-12-12T19:12:41.379Z,20.42
2022-12-12T19:15:44.351Z,20.43
2022-12-12T19:18:47.969Z,20.45
2022-12-12T19:21:52.301Z,20.47
2022-12-12T19:24:55.336Z,20.49
2022-12-12T19:28:00.850Z,20.49
2022-12-12T19:31:08.476Z,20.49
2022-12-12T19:34:13.205Z,20.49
2022-12-12T19:37:16.178Z,20.49
2022-12-12T19:40:19.610Z,20.49
2022-12-12T19:43:23.977Z,20.47
2022-12-12T19:46:29.905Z,20.47
2022-12-12T19:49:33.201Z,20.46
2022-12-12T19:52:36.217Z,20.44
2022-12-12T19:55:39.772Z,20.44
2022-12-12T19:58:44.656Z,20.42
2022-12-12T20:01:49.422Z,20.41
2022-12-12T20:04:52.450Z,20.40
2022-12-12T20:07:55.457Z,20.41
2022-12-12T20:11:04.227Z,20.40
2022-12-12T20:14:14.422Z,20.40
2022-12-12T20:17:17.511Z,20.40
2022-12-12T20:20:20.491Z,20.39
2022-12-12T20:23:23.566Z,20.38
2022-12-12T20:26:28.990Z,20.37
2022-12-12T20:29:33.847Z,20.37
2022-12-12T20:32:36.913Z,20.34
2022-12-12T20:35:41.833Z,20.35
2022-12-12T20:38:45.732Z,20.34
2022-12-12T20:41:49.706Z,20.35
2022-12-12T20:44:54.166Z,20.35
2022-12-12T20:47:57.194Z,20.35
2022-12-12T20:51:01.050Z,20.35
2022-12-12T20:54:05.999Z,20.37
2022-12-12T20:57:08.985Z,20.38
2022-12-12T21:00:14.866Z,20.41
2022-12-12T21:03:18.158Z,20.43
2022-12-12T21:06:23.338Z,20.44
2022-12-12T21:09:26.979Z,20.48
2022-12-12T21:12:30.191Z,20.49
2022-12-12T21:15:34.601Z,20.53
2022-12-12T21:18:38.419Z,20.54
2022-12-12T21:21:42.600Z,20.54
2022-12-12T21:24:45.869Z,20.55
2022-12-12T21:27:48.847Z,20.55
2022-12-12T21:30:53.332Z,20.55
2022-12-12T21:33:57.098Z,20.54
2022-12-12T21:37:00.510Z,20.54
2022-12-12T21:40:03.823Z,20.53
2022-12-12T21:43:06.779Z,20.52
2022-12-12T21:46:14.627Z,20.51
2022-12-12T21:49:26.625Z,20.50
2022-12-12T21:52:29.859Z,20.49
2022-12-12T21:55:32.906Z,20.48
2022-12-12T21:58:37.729Z,20.47
2022-12-12T22:01:42.324Z,20.47
2022-12-12T22:04:45.447Z,20.46
2022-12-12T22:07:48.636Z,20.46
2022-12-12T22:10:54.481Z,20.46
2022-12-12T22:13:57.698Z,20.45
2022-12-12T22:17:02.883Z,20.44
2022-12-12T22:20:06.408Z,20.43
2022-12-12T22:23:09.602Z,20.43
2022-12-12T22:26:16.997Z,20.42
2022-12-12T22:29:21.254Z,20.41
2022-12-12T22:32:25.671Z,20.41
2022-12-12T22:35:28.718Z,20.41
2022-12-12T22:38:37.747Z,20.40
2022-12-12T22:41:41.249Z,20.42
2022-12-12T22:44:44.726Z,20.41
2022-12-12T22:47:49.151Z,20.41
2022-12-12T22:50:52.158Z,20.40
2022-12-12T22:53:56.574Z,20.42
2022-12-12T22:56:59.683Z,20.41
2022-12-12T23:00:02.849Z,20.42
2022-12-12T23:03:07.410Z,20.42
2022-12-12T23:06:13.265Z,20.44
2022-12-12T23:09:18.907Z,20.43
2022-12-12T23:12:24.679Z,20.40
2022-12-12T23:15:27.671Z,20.38
2022-12-12T23:18:32.903Z,20.39
2022-12-12T23:21:37.463Z,20.40
2022-12-12T23:24:40.448Z,20.41
2022-12-12T23:27:43.433Z,20.45
2022-12-12T23:30:46.419Z,20.46
2022-12-12T23:33:54.495Z,20.47
2022-12-12T23:36:58.213Z,20.48
2022-12-12T23:40:02.223Z,20.48
2022-12-12T23:43:05.182Z,20.48
2022-12-12T23:46:27.935Z,20.47
2022-12-12T23:49:32.494Z,20.47
2022-12-12T23:52:35.516Z,20.46
2022-12-12T23:55:38.625Z,20.44
2022-12-12T23:58:41.634Z,20.44
